Time;durP1;ratioP1;P1;durP2;ratioP2;P2;SDS_P1;SDS_P2;PMS_P1;PMS_P2;Temp;Humidity;BMP_temperature;BMP_pressure;BME280_temperature;BME280_humidity;BME280_pressure;Samples;Min_cycle;Max_cycle;Signal;HPM_P1;HPM_P2
2023/08/19 00:00:59;;;;;;;63.83;40.90;;;21.20;99.90;;;;;;5030563;28;20045;-63
2023/08/19 00:03:26;;;;;;;70.45;40.63;;;21.10;99.90;;;;;;5028560;28;20447;-62
2023/08/19 00:05:53;;;;;;;78.45;40.67;;;21.10;99.90;;;;;;5010143;28;20496;-63
2023/08/19 00:08:20;;;;;;;72.10;41.10;;;21.00;99.90;;;;;;5029026;28;20546;-62
2023/08/19 00:10:46;;;;;;;72.07;40.47;;;21.20;99.90;;;;;;5030641;28;20042;-62
2023/08/19 00:13:13;;;;;;;67.28;37.05;;;21.10;99.90;;;;;;5029778;28;20131;-62
2023/08/19 00:15:40;;;;;;;67.28;38.55;;;21.10;99.90;;;;;;5029530;28;20045;-62
2023/08/19 00:18:07;;;;;;;64.82;37.92;;;21.00;99.90;;;;;;5029871;28;20048;-62
2023/08/19 00:20:34;;;;;;;63.85;37.75;;;21.00;99.90;;;;;;5029722;28;20049;-63
2023/08/19 00:23:00;;;;;;;71.20;40.40;;;21.00;99.90;;;;;;5029908;28;20050;-63
2023/08/19 00:25:27;;;;;;;78.50;41.42;;;21.00;99.90;;;;;;5030455;28;20107;-63
2023/08/19 00:27:54;;;;;;;75.18;41.70;;;21.00;99.90;;;;;;5029901;28;20115;-63
2023/08/19 00:30:21;;;;;;;78.68;42.03;;;20.90;99.90;;;;;;5030329;28;20103;-64
2023/08/19 00:32:48;;;;;;;73.75;39.75;;;20.90;99.90;;;;;;5029585;28;20076;-64
2023/08/19 00:35:14;;;;;;;58.13;33.83;;;20.90;99.90;;;;;;5029274;28;20052;-63
2023/08/19 00:37:41;;;;;;;43.67;24.75;;;20.80;99.90;;;;;;5029931;28;20447;-62
2023/08/19 00:40:12;;;;;;;38.28;21.58;;;20.80;99.90;;;;;;5029568;28;20549;-63
2023/08/19 00:42:38;;;;;;;28.90;18.83;;;20.80;99.90;;;;;;5029400;28;20049;-62
2023/08/19 00:45:06;;;;;;;22.75;15.18;;;20.80;99.90;;;;;;5029682;28;20045;-62
2023/08/19 00:47:33;;;;;;;21.20;12.82;;;20.70;99.90;;;;;;5012016;28;20103;-62
2023/08/19 00:50:00;;;;;;;19.98;13.65;;;20.70;99.90;;;;;;5022147;28;20052;-63
2023/08/19 00:52:27;;;;;;;13.30;10.88;;;20.60;99.90;;;;;;4990777;28;20099;-62
2023/08/19 00:54:54;;;;;;;15.43;11.10;;;20.60;99.90;;;;;;5029665;28;20096;-62
2023/08/19 00:57:21;;;;;;;10.50;9.00;;;20.60;99.90;;;;;;5022849;28;20041;-63
2023/08/19 00:59:48;;;;;;;14.48;8.95;;;20.50;99.90;;;;;;5029317;28;20127;-63
2023/08/19 01:02:15;;;;;;;12.98;9.02;;;20.50;99.90;;;;;;5029294;28;20140;-62
2023/08/19 01:04:42;;;;;;;13.55;8.60;;;20.50;99.90;;;;;;5011486;28;20045;-63
2023/08/19 01:07:15;;;;;;;14.75;8.77;;;20.50;99.90;;;;;;5011461;28;20488;-62
2023/08/19 01:09:52;;;;;;;;;;;20.40;99.90;;;;;;5029293;28;20046;-62
2023/08/19 01:12:30;;;;;;;10.73;8.57;;;20.40;99.90;;;;;;5011503;28;19920;-61
2023/08/19 01:15:04;;;;;;;10.82;8.00;;;20.50;99.90;;;;;;5011048;28;20041;-62
2023/08/19 01:17:32;;;;;;;11.52;9.27;;;20.50;99.90;;;;;;5011527;28;20053;-63
2023/08/19 01:20:00;;;;;;;14.07;8.80;;;20.40;99.90;;;;;;5028463;28;20125;-62
2023/08/19 01:22:51;;;;;;;9.82;8.30;;;20.50;99.90;;;;;;5028739;28;20519;-62
2023/08/19 01:25:18;;;;;;;10.85;8.73;;;20.40;99.90;;;;;;5028227;28;20046;-63
2023/08/19 01:27:45;;;;;;;9.13;7.53;;;20.30;99.90;;;;;;5010551;28;20496;-63
2023/08/19 01:30:12;;;;;;;11.23;8.27;;;20.30;99.90;;;;;;5027814;28;20080;-62
2023/08/19 01:32:39;;;;;;;9.10;7.15;;;20.30;99.90;;;;;;5029588;28;20091;-62
2023/08/19 01:35:06;;;;;;;9.57;7.35;;;20.30;99.90;;;;;;5028863;28;20192;-62
2023/08/19 01:37:39;;;;;;;8.15;7.07;;;20.30;99.90;;;;;;5011455;28;20490;-63
2023/08/19 01:40:07;;;;;;;15.18;6.93;;;20.20;99.90;;;;;;5010677;28;20198;-62
2023/08/19 01:42:34;;;;;;;14.40;6.28;;;20.20;99.90;;;;;;4994969;28;20076;-62
2023/08/19 01:45:02;;;;;;;8.65;5.93;;;20.20;99.90;;;;;;5011017;28;20306;-62
2023/08/19 01:47:29;;;;;;;18.30;6.60;;;20.20;99.90;;;;;;4995238;28;20103;-63
2023/08/19 01:49:57;;;;;;;10.70;6.40;;;20.20;99.90;;;;;;5028046;28;20049;-62
2023/08/19 01:52:24;;;;;;;9.07;5.72;;;20.10;99.90;;;;;;5028506;28;20054;-63
2023/08/19 01:54:50;;;;;;;12.02;6.05;;;20.10;99.90;;;;;;5028226;28;20049;-63
2023/08/19 01:57:17;;;;;;;7.80;5.55;;;20.00;99.90;;;;;;5027835;28;20041;-63
2023/08/19 01:59:44;;;;;;;8.15;5.45;;;20.00;99.90;;;;;;5028298;28;20053;-63
2023/08/19 02:02:11;;;;;;;7.45;5.18;;;19.90;99.90;;;;;;5027858;28;20393;-62
2023/08/19 02:04:37;;;;;;;11.27;6.53;;;20.00;99.90;;;;;;5025492;28;20099;-63
2023/08/19 02:07:04;;;;;;;8.10;5.65;;;20.00;99.90;;;;;;5027692;28;20435;-64
2023/08/19 02:09:31;;;;;;;10.40;5.30;;;20.00;99.90;;;;;;5027421;28;20492;-61
2023/08/19 02:11:58;;;;;;;10.68;5.88;;;19.90;99.90;;;;;;5027924;28;20037;-62
2023/08/19 02:14:25;;;;;;;5.15;4.20;;;19.90;99.90;;;;;;5024884;28;20045;-62
2023/08/19 02:16:52;;;;;;;8.85;4.00;;;19.90;99.90;;;;;;5026093;28;20073;-63
2023/08/19 02:19:19;;;;;;;5.82;3.95;;;19.90;99.90;;;;;;5027854;28;20049;-63
2023/08/19 02:21:45;;;;;;;8.25;3.88;;;19.80;99.90;;;;;;5027702;28;20045;-62
2023/08/19 02:24:12;;;;;;;6.22;3.85;;;19.80;99.90;;;;;;5028085;28;20037;-62
2023/08/19 02:26:39;;;;;;;6.03;3.75;;;19.70;99.90;;;;;;5027608;28;20053;-64
2023/08/19 02:29:06;;;;;;;7.40;3.30;;;19.70;99.90;;;;;;5028027;28;20095;-62
2023/08/19 02:31:35;;;;;;;4.22;2.83;;;19.80;99.90;;;;;;5027571;28;20046;-62
2023/08/19 02:34:03;;;;;;;4.18;3.15;;;19.70;99.90;;;;;;5027444;28;20053;-63
2023/08/19 02:36:31;;;;;;;5.18;3.30;;;19.70;99.90;;;;;;5027481;28;20485;-63
2023/08/19 02:38:58;;;;;;;9.50;3.03;;;19.70;99.90;;;;;;5027955;28;20236;-64
2023/08/19 02:41:25;;;;;;;6.57;3.05;;;19.70;99.90;;;;;;5027594;28;20128;-64
2023/08/19 02:43:52;;;;;;;6.72;3.47;;;19.60;99.90;;;;;;5027500;28;20485;-63
2023/08/19 02:46:18;;;;;;;8.93;3.47;;;19.60;99.90;;;;;;5025516;28;20073;-63
2023/08/19 02:48:45;;;;;;;3.30;2.58;;;19.70;99.90;;;;;;5027556;28;20041;-63
2023/08/19 02:51:12;;;;;;;7.32;3.03;;;19.70;99.90;;;;;;5028032;28;20053;-62
2023/08/19 02:53:39;;;;;;;4.90;2.53;;;19.70;99.90;;;;;;5027545;28;20286;-63
2023/08/19 02:56:06;;;;;;;6.57;3.03;;;19.70;99.90;;;;;;5027827;28;20092;-62
2023/08/19 02:58:33;;;;;;;6.53;3.20;;;19.80;99.90;;;;;;5026963;28;20041;-62
2023/08/19 03:01:00;;;;;;;6.13;3.22;;;19.80;99.90;;;;;;5024359;28;20457;-62
2023/08/19 03:03:27;;;;;;;6.05;2.83;;;19.80;99.90;;;;;;5027107;28;20049;-62
2023/08/19 03:05:59;;;;;;;6.38;2.22;;;19.80;99.90;;;;;;5027005;28;20155;-63
2023/08/19 03:08:25;;;;;;;15.10;3.88;;;19.80;99.90;;;;;;5026342;28;20099;-62
2023/08/19 03:10:52;;;;;;;6.15;2.97;;;19.80;99.90;;;;;;5025846;28;20105;-62
2023/08/19 03:13:20;;;;;;;8.30;3.67;;;19.80;99.90;;;;;;5027395;28;20050;-62
2023/08/19 03:15:47;;;;;;;6.13;2.63;;;19.80;99.90;;;;;;5024703;28;20064;-62
2023/08/19 03:18:14;;;;;;;4.70;2.60;;;19.90;99.90;;;;;;5026739;28;20053;-64
2023/08/19 03:20:42;;;;;;;5.15;2.50;;;19.90;99.90;;;;;;5026891;28;20042;-61
2023/08/19 03:23:09;;;;;;;6.65;3.25;;;19.80;99.90;;;;;;5026748;28;20053;-61
2023/08/19 03:25:35;;;;;;;5.88;2.75;;;19.90;99.90;;;;;;5027302;28;20049;-60
2023/08/19 03:28:02;;;;;;;9.13;2.80;;;19.90;99.90;;;;;;5025619;28;20096;-60
2023/08/19 03:30:29;;;;;;;6.20;2.88;;;19.90;99.90;;;;;;5029740;28;20053;-61
2023/08/19 03:32:56;;;;;;;9.82;2.78;;;19.90;99.90;;;;;;5027202;28;20057;-61
2023/08/19 03:35:23;;;;;;;4.65;2.92;;;19.90;99.90;;;;;;5027293;28;20381;-60
2023/08/19 03:37:49;;;;;;;12.13;3.65;;;19.80;99.90;;;;;;5029396;28;20476;-62
2023/08/19 03:40:16;;;;;;;11.45;2.67;;;19.80;99.90;;;;;;5030185;28;20045;-62
2023/08/19 03:42:43;;;;;;;9.85;3.40;;;19.80;99.90;;;;;;5030557;28;20061;-62
2023/08/19 03:45:10;;;;;;;9.43;2.88;;;19.70;99.90;;;;;;5029639;28;20045;-62
2023/08/19 03:47:36;;;;;;;9.75;2.40;;;19.70;99.90;;;;;;5028730;28;20495;-62
2023/08/19 03:50:04;;;;;;;5.75;2.58;;;19.60;99.90;;;;;;5030394;28;20073;-61
2023/08/19 03:52:30;;;;;;;6.88;2.97;;;19.50;99.90;;;;;;5029756;28;20518;-63
2023/08/19 03:54:57;;;;;;;9.05;2.92;;;19.50;99.90;;;;;;5030068;28;20104;-61
2023/08/19 03:57:24;;;;;;;5.70;2.63;;;19.40;99.90;;;;;;5027752;28;20084;-62
2023/08/19 03:59:51;;;;;;;7.78;2.67;;;19.40;99.90;;;;;;5026717;28;20107;-61
2023/08/19 04:02:17;;;;;;;9.80;3.03;;;19.40;99.90;;;;;;5025856;28;20092;-61
2023/08/19 04:05:01;;;;;;;14.70;2.60;;;19.40;99.90;;;;;;5025787;28;20661;-61
2023/08/19 04:07:28;;;;;;;12.77;2.83;;;19.30;99.90;;;;;;5024775;28;20057;-61
2023/08/19 04:09:55;;;;;;;5.38;2.50;;;19.20;99.90;;;;;;5028189;28;20080;-62
2023/08/19 04:12:26;;;;;;;9.20;2.85;;;19.20;99.90;;;;;;5026650;28;20143;-62
2023/08/19 04:14:53;;;;;;;5.80;2.28;;;19.20;99.90;;;;;;5025995;28;20049;-61
2023/08/19 04:17:19;;;;;;;9.73;2.92;;;19.10;99.90;;;;;;5006503;28;20052;-62
2023/08/19 04:19:46;;;;;;;11.50;2.72;;;19.10;99.90;;;;;;5026795;28;20250;-61
2023/08/19 04:22:14;;;;;;;18.15;2.95;;;19.00;99.90;;;;;;5027118;28;20088;-61
2023/08/19 04:24:41;;;;;;;10.55;3.22;;;19.00;99.90;;;;;;5028636;28;20053;-59
2023/08/19 04:27:08;;;;;;;11.93;2.55;;;19.00;99.90;;;;;;5022155;28;20053;-61
2023/08/19 04:29:34;;;;;;;16.83;3.10;;;19.00;99.90;;;;;;5029807;28;20111;-61
2023/08/19 04:32:02;;;;;;;9.77;2.35;;;19.00;99.90;;;;;;5011690;28;20064;-61
2023/08/19 04:34:29;;;;;;;8.60;2.78;;;18.90;99.90;;;;;;5029474;28;20567;-62
2023/08/19 04:36:56;;;;;;;12.15;2.50;;;18.90;99.90;;;;;;5029647;28;20045;-62
2023/08/19 04:39:23;;;;;;;12.77;2.90;;;18.80;99.90;;;;;;5029816;28;20045;-61
2023/08/19 04:41:50;;;;;;;10.88;2.58;;;18.90;99.90;;;;;;5030003;28;20092;-62
2023/08/19 04:44:17;;;;;;;11.90;2.65;;;18.80;99.90;;;;;;5029304;28;20050;-61
2023/08/19 04:46:44;;;;;;;16.17;3.35;;;18.80;99.90;;;;;;5029557;28;20050;-61
2023/08/19 04:49:11;;;;;;;16.13;4.50;;;18.70;99.90;;;;;;5029749;28;20111;-62
2023/08/19 04:51:38;;;;;;;13.98;2.80;;;18.70;99.90;;;;;;5029544;28;20048;-61
2023/08/19 04:54:05;;;;;;;12.52;3.17;;;18.70;99.90;;;;;;5029676;28;20046;-62
2023/08/19 04:56:32;;;;;;;14.50;3.13;;;18.60;99.90;;;;;;5029408;28;20045;-61
2023/08/19 04:59:02;;;;;;;14.88;3.22;;;18.60;99.90;;;;;;5012243;28;20095;-61
2023/08/19 05:01:29;;;;;;;14.32;4.65;;;18.60;99.90;;;;;;5029721;28;20065;-62
2023/08/19 05:03:56;;;;;;;15.95;2.95;;;18.50;99.90;;;;;;5029125;28;20055;-61
2023/08/19 05:06:23;;;;;;;25.05;3.88;;;18.40;99.90;;;;;;5029547;28;20091;-61
2023/08/19 05:08:50;;;;;;;17.80;4.60;;;18.40;99.90;;;;;;5029241;28;20463;-61
2023/08/19 05:11:16;;;;;;;14.05;2.90;;;18.40;99.90;;;;;;5029253;28;20049;-62
2023/08/19 05:13:44;;;;;;;15.95;3.63;;;18.40;99.90;;;;;;5028743;28;20053;-63
2023/08/19 05:16:11;;;;;;;20.15;3.00;;;18.40;99.90;;;;;;5029288;28;20100;-63
2023/08/19 05:18:39;;;;;;;14.18;3.05;;;18.30;99.90;;;;;;5029100;28;20064;-62
2023/08/19 05:21:06;;;;;;;13.88;2.55;;;18.30;99.90;;;;;;5029162;28;20099;-63
2023/08/19 05:23:33;;;;;;;11.68;2.20;;;18.40;99.90;;;;;;5028747;28;20393;-63
2023/08/19 05:26:00;;;;;;;17.17;3.60;;;18.40;99.90;;;;;;5028977;28;20037;-63
2023/08/19 05:28:27;;;;;;;18.10;3.60;;;18.30;99.90;;;;;;5028806;28;20107;-62
2023/08/19 05:30:54;;;;;;;22.05;4.47;;;18.30;99.90;;;;;;5029155;28;20053;-64
2023/08/19 05:33:21;;;;;;;14.30;3.28;;;18.30;99.90;;;;;;5028898;28;20111;-63
2023/08/19 05:35:47;;;;;;;21.98;3.70;;;18.30;99.90;;;;;;5028602;28;20127;-61
2023/08/19 05:38:14;;;;;;;23.20;2.78;;;18.20;99.90;;;;;;5028432;28;20553;-62
2023/08/19 05:40:41;;;;;;;14.38;2.88;;;18.20;99.90;;;;;;5028704;28;20111;-62
2023/08/19 05:43:07;;;;;;;22.73;4.35;;;18.20;99.90;;;;;;5028492;28;20049;-63
2023/08/19 05:45:34;;;;;;;18.98;3.08;;;18.20;99.90;;;;;;5028748;28;20064;-62
2023/08/19 05:48:01;;;;;;;21.73;3.63;;;18.20;99.90;;;;;;5028738;28;20056;-62
2023/08/19 05:50:28;;;;;;;11.88;3.25;;;18.20;99.90;;;;;;5028283;28;20046;-62
2023/08/19 05:52:55;;;;;;;17.35;3.50;;;18.20;99.90;;;;;;5028773;28;20049;-62
2023/08/19 05:55:21;;;;;;;13.73;3.03;;;18.20;99.90;;;;;;5028131;28;20061;-62
2023/08/19 05:57:48;;;;;;;22.77;4.90;;;18.30;99.90;;;;;;5028256;28;20057;-64
2023/08/19 06:00:15;;;;;;;19.13;3.20;;;18.30;99.90;;;;;;5028157;28;20046;-63
2023/08/19 06:02:42;;;;;;;22.25;4.35;;;18.30;99.90;;;;;;5028517;28;20053;-62
2023/08/19 06:05:09;;;;;;;29.73;4.63;;;18.30;99.90;;;;;;5027719;28;20058;-62
2023/08/19 06:07:37;;;;;;;19.95;3.50;;;18.40;99.90;;;;;;5028255;28;20115;-62
2023/08/19 06:10:05;;;;;;;22.70;4.43;;;18.40;99.90;;;;;;5017326;28;20052;-62
2023/08/19 06:12:31;;;;;;;23.50;5.95;;;18.40;99.90;;;;;;5027433;28;20052;-62
2023/08/19 06:14:58;;;;;;;20.50;3.67;;;18.40;99.90;;;;;;5028062;28;20076;-63
2023/08/19 06:17:26;;;;;;;18.63;5.15;;;18.50;99.90;;;;;;5028355;28;20045;-62
2023/08/19 06:19:53;;;;;;;18.55;3.80;;;18.50;99.90;;;;;;5010566;28;20618;-62
2023/08/19 06:22:19;;;;;;;21.40;5.00;;;18.60;99.90;;;;;;5028133;28;20053;-62
2023/08/19 06:24:46;;;;;;;29.90;3.67;;;18.60;99.90;;;;;;5028368;28;20122;-64
2023/08/19 06:27:13;;;;;;;19.92;4.72;;;18.70;99.90;;;;;;5028039;28;20092;-62
2023/08/19 06:29:40;;;;;;;23.05;3.90;;;18.70;99.90;;;;;;5027924;28;20050;-62
2023/08/19 06:32:07;;;;;;;17.77;3.17;;;18.70;99.90;;;;;;5006218;28;20095;-62
2023/08/19 06:34:34;;;;;;;25.60;4.13;;;18.80;99.90;;;;;;5027750;28;20049;-61
2023/08/19 06:37:01;;;;;;;12.45;2.40;;;18.80;99.90;;;;;;5025513;28;20084;-62
2023/08/19 06:39:28;;;;;;;20.30;4.30;;;18.80;99.90;;;;;;4994514;28;20049;-63
2023/08/19 06:42:02;;;;;;;19.80;3.25;;;18.90;99.90;;;;;;4994839;28;20088;-63
2023/08/19 06:44:29;;;;;;;13.68;3.70;;;19.00;99.90;;;;;;5012140;28;20053;-60
2023/08/19 06:46:56;;;;;;;16.02;3.65;;;19.00;99.90;;;;;;5009896;28;20049;-60
2023/08/19 06:49:24;;;;;;;19.23;3.58;;;19.00;99.90;;;;;;5027679;28;20053;-61
2023/08/19 06:51:51;;;;;;;14.43;2.80;;;19.10;99.90;;;;;;5027398;28;20050;-62
2023/08/19 06:54:18;;;;;;;14.57;3.05;;;19.00;99.90;;;;;;5028035;28;20083;-62
2023/08/19 06:56:53;;;;;;;14.57;3.28;;;19.10;99.90;;;;;;5027817;28;20045;-62
2023/08/19 06:59:42;;;;;;;17.55;2.67;;;19.10;99.90;;;;;;5025554;28;20053;-62
2023/08/19 07:02:09;;;;;;;22.42;3.92;;;19.20;99.90;;;;;;5012798;28;20053;-64
2023/08/19 07:04:36;;;;;;;15.57;3.20;;;19.30;99.90;;;;;;4993943;28;20064;-64
2023/08/19 07:07:04;;;;;;;21.67;4.65;;;19.20;99.90;;;;;;5027899;28;20037;-63
2023/08/19 07:09:32;;;;;;;17.13;3.28;;;19.30;99.90;;;;;;5030239;28;20540;-64
2023/08/19 07:12:00;;;;;;;13.65;2.75;;;19.20;99.90;;;;;;5029051;28;20053;-63
2023/08/19 07:14:29;;;;;;;13.55;2.78;;;19.30;99.90;;;;;;5031102;28;21633;-63
2023/08/19 07:16:59;;;;;;;15.68;3.80;;;19.30;99.90;;;;;;5028745;28;20041;-63
2023/08/19 07:19:27;;;;;;;18.55;3.55;;;19.30;99.90;;;;;;5029786;28;20053;-63
2023/08/19 07:21:55;;;;;;;18.42;3.45;;;19.30;99.90;;;;;;5031259;28;20060;-63
2023/08/19 07:24:22;;;;;;;16.58;3.20;;;19.30;99.90;;;;;;5031209;28;20092;-62
2023/08/19 07:26:49;;;;;;;12.35;2.83;;;19.30;99.90;;;;;;5012899;28;20095;-63
2023/08/19 07:29:16;;;;;;;10.73;2.70;;;19.40;99.90;;;;;;5031190;28;20631;-63
2023/08/19 07:31:43;;;;;;;18.65;3.63;;;19.40;99.90;;;;;;5030807;28;20041;-63
2023/08/19 07:34:09;;;;;;;13.27;3.00;;;19.50;99.90;;;;;;5030546;28;20045;-64
2023/08/19 07:36:36;;;;;;;18.83;3.22;;;19.50;99.90;;;;;;5030709;28;20053;-63
2023/08/19 07:39:04;;;;;;;15.95;2.40;;;19.50;99.90;;;;;;5031466;28;20091;-63
2023/08/19 07:41:30;;;;;;;18.40;3.30;;;19.50;99.90;;;;;;5012642;28;20134;-63
2023/08/19 07:43:57;;;;;;;13.95;2.42;;;19.60;99.90;;;;;;5031057;28;20052;-63
2023/08/19 07:46:25;;;;;;;12.38;2.53;;;19.70;99.90;;;;;;5031132;28;20115;-63
2023/08/19 07:48:52;;;;;;;13.05;2.08;;;19.70;99.90;;;;;;5030413;28;20050;-63
2023/08/19 07:51:18;;;;;;;13.77;3.17;;;19.80;99.90;;;;;;5030564;28;20507;-64
2023/08/19 07:53:45;;;;;;;17.02;3.15;;;19.80;99.90;;;;;;5012602;28;20557;-63
2023/08/19 07:56:12;;;;;;;12.93;2.70;;;19.80;99.90;;;;;;5031043;28;20057;-64
2023/08/19 07:58:39;;;;;;;10.38;2.63;;;19.90;99.90;;;;;;5029444;28;20049;-62
2023/08/19 08:01:10;;;;;;;16.35;3.13;;;19.90;99.90;;;;;;5030850;28;20127;-63
2023/08/19 08:03:40;;;;;;;14.50;3.22;;;19.90;99.90;;;;;;5028965;28;20049;-64
2023/08/19 08:06:07;;;;;;;17.38;4.82;;;20.00;99.90;;;;;;5030093;28;20061;-64
2023/08/19 08:08:33;;;;;;;19.75;2.80;;;20.10;99.90;;;;;;5030212;28;20503;-62
2023/08/19 08:11:00;;;;;;;12.48;2.65;;;20.10;99.90;;;;;;5030529;28;20104;-63
2023/08/19 08:13:27;;;;;;;11.73;2.33;;;20.20;99.90;;;;;;5013980;28;20435;-63
2023/08/19 08:15:54;;;;;;;12.65;2.33;;;20.30;99.90;;;;;;5030127;28;20092;-63
2023/08/19 08:18:21;;;;;;;17.48;3.53;;;20.30;99.90;;;;;;5030172;28;20124;-63
2023/08/19 08:20:48;;;;;;;27.25;4.50;;;20.30;99.90;;;;;;5029253;28;20045;-63
2023/08/19 08:23:15;;;;;;;16.33;2.58;;;20.40;99.90;;;;;;5030173;28;20436;-63
2023/08/19 08:25:41;;;;;;;14.70;2.97;;;20.40;99.90;;;;;;5030337;28;20050;-64
2023/08/19 08:28:08;;;;;;;18.17;3.78;;;20.50;99.90;;;;;;5029896;28;20462;-67
2023/08/19 08:30:35;;;;;;;12.93;3.50;;;20.50;99.90;;;;;;5029897;28;20045;-64
2023/08/19 08:33:02;;;;;;;13.23;2.58;;;20.50;99.90;;;;;;5030286;28;20222;-64
2023/08/19 08:35:31;;;;;;;9.82;2.60;;;20.60;99.90;;;;;;5029410;28;20056;-63
2023/08/19 08:37:57;;;;;;;16.23;4.28;;;20.60;99.90;;;;;;5001662;28;20053;-63
2023/08/19 08:40:24;;;;;;;21.67;3.28;;;20.70;99.90;;;;;;5029388;28;20075;-62
2023/08/19 08:42:51;;;;;;;12.93;2.33;;;20.70;99.90;;;;;;5030059;28;20111;-63
2023/08/19 08:45:18;;;;;;;17.02;3.13;;;20.70;99.90;;;;;;5010651;28;20050;-63
2023/08/19 08:47:45;;;;;;;10.15;2.20;;;20.80;99.90;;;;;;5011951;28;20096;-64
2023/08/19 08:50:12;;;;;;;10.68;2.25;;;20.90;99.90;;;;;;5014211;28;20103;-63
2023/08/19 08:52:40;;;;;;;11.25;2.58;;;20.90;99.90;;;;;;5028639;28;20500;-63
2023/08/19 08:55:07;;;;;;;17.95;4.05;;;20.90;99.90;;;;;;5011999;28;20045;-63
2023/08/19 08:57:34;;;;;;;9.30;3.15;;;21.00;99.90;;;;;;5011918;28;20046;-63
2023/08/19 09:00:01;;;;;;;16.30;2.75;;;21.00;99.90;;;;;;5029500;28;20052;-63
2023/08/19 09:02:27;;;;;;;8.35;1.90;;;21.10;99.90;;;;;;5029268;28;20073;-63
2023/08/19 09:04:54;;;;;;;14.02;2.17;;;21.10;99.90;;;;;;4995293;28;20045;-63
2023/08/19 09:07:25;;;;;;;13.70;3.53;;;21.10;99.90;;;;;;4995483;28;20172;-63
2023/08/19 09:09:52;;;;;;;14.75;2.95;;;21.00;99.90;;;;;;5029771;28;20443;-62
2023/08/19 09:12:19;;;;;;;10.18;2.38;;;21.00;99.90;;;;;;5029462;28;20049;-66
2023/08/19 09:14:46;;;;;;;12.65;3.28;;;20.90;99.90;;;;;;4989632;28;20049;-63
2023/08/19 09:17:17;;;;;;;13.38;2.75;;;20.90;99.90;;;;;;4995335;28;20488;-64
2023/08/19 09:19:43;;;;;;;12.57;3.08;;;20.90;99.90;;;;;;5020232;28;20068;-65
2023/08/19 09:22:16;;;;;;;9.20;2.17;;;21.10;99.90;;;;;;5028927;28;20045;-63
2023/08/19 09:24:44;;;;;;;8.35;1.55;;;21.20;99.90;;;;;;5030118;28;20100;-63
2023/08/19 09:27:11;;;;;;;7.47;2.00;;;21.30;99.90;;;;;;5029489;28;20068;-63
2023/08/19 09:29:48;;;;;;;8.52;2.05;;;21.40;99.90;;;;;;5029296;28;20053;-64
2023/08/19 09:32:15;;;;;;;8.30;2.35;;;21.50;99.90;;;;;;5028683;28;20053;-64
2023/08/19 09:34:42;;;;;;;5.05;1.08;;;21.60;99.90;;;;;;5028526;28;20159;-64
2023/08/19 09:37:11;;;;;;;12.93;2.22;;;21.60;99.90;;;;;;5003033;28;20049;-63
2023/08/19 09:39:38;;;;;;;10.30;1.40;;;21.70;99.90;;;;;;5011739;28;20046;-63
2023/08/19 09:42:06;;;;;;;8.30;2.28;;;21.80;99.90;;;;;;5029213;28;20041;-64
2023/08/19 09:44:33;;;;;;;8.63;1.77;;;21.80;99.90;;;;;;5011312;28;20046;-64
2023/08/19 09:47:02;;;;;;;6.80;1.48;;;22.10;99.90;;;;;;5029325;28;20411;-64
2023/08/19 09:49:29;;;;;;;4.45;1.20;;;22.50;99.90;;;;;;5011459;28;20128;-64
2023/08/19 09:51:56;;;;;;;6.88;1.27;;;22.70;99.90;;;;;;5028674;28;20049;-65
2023/08/19 09:54:24;;;;;;;7.13;1.27;;;22.60;99.90;;;;;;5028647;28;20050;-64
2023/08/19 09:56:57;;;;;;;6.15;1.65;;;22.70;99.90;;;;;;5028521;28;20439;-63
2023/08/19 09:59:26;;;;;;;8.10;1.48;;;23.00;99.90;;;;;;5028778;28;20141;-64
2023/08/19 10:01:52;;;;;;;6.00;1.55;;;23.50;99.90;;;;;;5028910;28;20067;-64
2023/08/19 10:04:20;;;;;;;9.75;1.50;;;23.70;99.90;;;;;;5028366;28;20060;-63
2023/08/19 10:06:49;;;;;;;6.05;1.67;;;23.40;99.90;;;;;;5010104;28;20041;-63
2023/08/19 10:09:18;;;;;;;7.72;1.42;;;22.80;99.90;;;;;;5011042;28;20068;-63
2023/08/19 10:11:45;;;;;;;8.80;1.77;;;22.80;99.90;;;;;;5027935;28;20049;-64
2023/08/19 10:14:12;;;;;;;8.18;1.30;;;22.80;99.90;;;;;;5010696;28;20057;-64
2023/08/19 10:16:45;;;;;;;5.75;1.33;;;22.50;99.90;;;;;;5028436;28;20050;-63
2023/08/19 10:19:13;;;;;;;4.07;1.27;;;22.50;99.90;;;;;;5027888;28;20068;-63
2023/08/19 10:21:40;;;;;;;5.00;1.65;;;22.40;99.90;;;;;;4994051;28;20049;-64
2023/08/19 10:24:07;;;;;;;5.28;1.40;;;22.30;99.90;;;;;;4994132;28;20531;-63
2023/08/19 10:26:34;;;;;;;5.75;1.10;;;22.40;99.90;;;;;;4984307;28;20056;-63
2023/08/19 10:29:07;;;;;;;6.68;1.40;;;23.00;99.90;;;;;;5027803;28;20088;-64
2023/08/19 10:31:35;;;;;;;8.43;2.30;;;23.00;99.90;;;;;;5028345;28;20045;-64
2023/08/19 10:34:32;;;;;;;5.55;1.13;;;23.00;99.90;;;;;;5027928;28;20060;-64
2023/08/19 10:37:08;;;;;;;9.52;1.77;;;22.80;99.90;;;;;;5017917;28;20563;-66
2023/08/19 10:39:35;;;;;;;5.82;1.42;;;22.70;99.90;;;;;;5027607;28;20041;-63
2023/08/19 10:42:02;;;;;;;3.65;1.00;;;22.70;99.90;;;;;;5025895;28;20052;-63
2023/08/19 10:44:31;;;;;;;6.68;1.50;;;22.70;99.90;;;;;;5031845;28;20061;-63
2023/08/19 10:47:09;;;;;;;10.95;1.95;;;22.80;99.90;;;;;;5025657;28;20041;-63
2023/08/19 10:49:36;;;;;;;9.73;1.90;;;22.90;99.90;;;;;;5031728;28;20045;-63
2023/08/19 10:52:06;;;;;;;10.05;1.90;;;22.80;99.90;;;;;;5032307;28;20046;-65
2023/08/19 10:54:40;;;;;;;8.43;1.85;;;22.80;99.90;;;;;;5031938;28;20229;-63
2023/08/19 10:57:23;;;;;;;8.95;1.75;;;22.70;99.90;;;;;;5015042;28;20574;-63
2023/08/19 10:59:54;;;;;;;7.28;1.58;;;22.50;99.90;;;;;;5031415;28;20530;-65
2023/08/19 11:02:21;;;;;;;10.05;1.52;;;22.30;99.90;;;;;;5028171;28;20099;-63
2023/08/19 11:04:48;;;;;;;6.20;1.35;;;22.40;99.90;;;;;;5031169;28;20563;-64
2023/08/19 11:07:16;;;;;;;11.85;2.15;;;22.30;99.90;;;;;;5026045;28;20514;-63
2023/08/19 11:09:46;;;;;;;7.95;1.70;;;22.30;99.90;;;;;;5031395;28;20049;-63
2023/08/19 11:12:18;;;;;;;11.05;2.13;;;22.40;99.90;;;;;;5031562;28;20103;-63
2023/08/19 11:14:49;;;;;;;5.55;1.48;;;22.60;99.90;;;;;;5014056;28;20045;-63
2023/08/19 11:17:16;;;;;;;10.60;2.72;;;22.50;99.90;;;;;;5031636;28;20473;-64
2023/08/19 11:19:43;;;;;;;11.95;2.60;;;22.50;99.90;;;;;;5031073;28;20478;-64
2023/08/19 11:22:14;;;;;;;7.63;2.38;;;22.50;99.90;;;;;;5031339;28;20488;-65
2023/08/19 11:24:41;;;;;;;12.95;1.52;;;22.60;99.90;;;;;;5027481;28;20095;-64
2023/08/19 11:27:08;;;;;;;7.07;1.80;;;22.70;99.90;;;;;;5031051;28;20219;-64
2023/08/19 11:29:38;;;;;;;7.55;2.15;;;22.70;99.90;;;;;;5031199;28;20049;-64
2023/08/19 11:32:05;;;;;;;9.15;1.88;;;22.80;99.90;;;;;;5030437;28;20037;-64
2023/08/19 11:34:32;;;;;;;8.73;2.30;;;23.10;99.90;;;;;;5030671;28;20107;-64
2023/08/19 11:37:02;;;;;;;8.25;2.20;;;23.20;99.90;;;;;;5028429;28;20583;-64
2023/08/19 11:39:30;;;;;;;10.98;2.28;;;23.10;99.90;;;;;;5013773;28;20076;-64
2023/08/19 11:41:57;;;;;;;10.38;2.08;;;23.00;99.90;;;;;;5030870;28;20152;-64
2023/08/19 11:44:24;;;;;;;8.00;1.67;;;22.90;99.90;;;;;;5031244;28;20096;-64
2023/08/19 11:46:54;;;;;;;6.55;1.48;;;23.10;99.90;;;;;;5030774;28;20091;-65
2023/08/19 11:49:21;;;;;;;10.57;2.05;;;23.30;99.90;;;;;;5030875;28;20586;-64
2023/08/19 11:51:48;;;;;;;6.28;1.30;;;23.50;99.90;;;;;;5027592;28;20110;-64
2023/08/19 11:54:14;;;;;;;9.88;2.10;;;23.50;99.90;;;;;;5029547;28;20046;-65
2023/08/19 11:56:49;;;;;;;8.02;1.90;;;23.50;99.90;;;;;;5027589;28;20480;-64
2023/08/19 11:59:19;;;;;;;9.68;2.28;;;23.50;99.90;;;;;;5029397;28;20045;-63
2023/08/19 12:01:48;;;;;;;9.73;1.52;;;23.50;99.90;;;;;;5014618;28;20049;-64
2023/08/19 12:04:15;;;;;;;12.18;1.98;;;23.50;99.90;;;;;;5029818;28;20073;-63
2023/08/19 12:06:43;;;;;;;11.25;2.85;;;23.70;99.90;;;;;;5030160;28;20492;-63
2023/08/19 12:09:10;;;;;;;6.22;2.03;;;23.80;99.90;;;;;;5030136;28;20046;-63
2023/08/19 12:11:37;;;;;;;7.22;2.10;;;23.70;99.90;;;;;;5015162;28;20108;-63
2023/08/19 12:14:04;;;;;;;8.25;2.17;;;23.70;99.90;;;;;;5030128;28;20639;-63
2023/08/19 12:16:31;;;;;;;5.95;2.70;;;23.60;99.90;;;;;;5030414;28;20304;-64
2023/08/19 12:18:58;;;;;;;9.85;2.38;;;23.70;99.90;;;;;;5029951;28;20056;-63
2023/08/19 12:21:25;;;;;;;8.25;2.17;;;23.70;99.90;;;;;;5028660;28;20049;-63
2023/08/19 12:23:52;;;;;;;7.68;1.42;;;23.70;99.90;;;;;;5029216;28;20550;-64
2023/08/19 12:26:19;;;;;;;10.38;2.47;;;23.70;99.90;;;;;;5029965;28;20115;-63
2023/08/19 12:28:46;;;;;;;8.85;2.22;;;23.80;99.90;;;;;;5012428;28;20041;-63
2023/08/19 12:31:13;;;;;;;9.07;2.40;;;24.00;99.90;;;;;;5029231;28;20102;-64
2023/08/19 12:33:40;;;;;;;5.80;1.95;;;24.10;99.90;;;;;;5029412;28;20504;-63
2023/08/19 12:36:07;;;;;;;7.85;2.00;;;24.10;99.90;;;;;;5029823;28;20054;-63
2023/08/19 12:38:45;;;;;;;8.48;1.73;;;24.00;99.90;;;;;;5028606;28;20038;-63
2023/08/19 12:41:12;;;;;;;15.43;3.00;;;24.10;99.90;;;;;;5030156;28;20099;-63
2023/08/19 12:43:39;;;;;;;8.15;1.70;;;24.10;99.90;;;;;;5029485;28;20057;-63